Time;durP1;ratioP1;P1;durP2;ratioP2;P2;SDS_P1;SDS_P2;PMS_P1;PMS_P2;Temp;Humidity;BMP_temperature;BMP_pressure;BME280_temperature;BME280_humidity;BME280_pressure;Samples;Min_cycle;Max_cycle;Signal;HPM_P1;HPM_P2
2022/08/18 00:02:06;;;;;;;69.47;54.90;;;;;;;20.77;87.28;99935.59;5086631;28;20506;-82
2022/08/18 00:04:34;;;;;;;66.70;53.37;;;;;;;20.65;88.13;99926.47;5086088;28;20448;-81
2022/08/18 00:07:01;;;;;;;67.00;53.00;;;;;;;20.69;88.01;99933.97;5084897;28;20848;-80
2022/08/18 00:09:29;;;;;;;67.80;53.47;;;;;;;20.73;88.18;99925.38;5090987;28;20512;-81
2022/08/18 00:11:57;;;;;;;68.77;55.43;;;;;;;20.84;87.30;99938.31;5100837;28;21261;-81
2022/08/18 00:14:24;;;;;;;65.13;54.77;;;;;;;20.74;87.54;99925.16;5105903;28;20439;-81
2022/08/18 00:16:52;;;;;;;69.33;54.07;;;;;;;20.66;87.78;99930.88;5104403;28;20483;-81
2022/08/18 00:19:19;;;;;;;77.67;56.50;;;;;;;20.73;87.93;99937.09;5084896;28;20498;-80
2022/08/18 00:21:46;;;;;;;70.60;51.93;;;;;;;20.74;87.19;99936.03;5082444;28;20526;-81
2022/08/18 00:24:12;;;;;;;67.43;52.00;;;;;;;20.84;87.00;99935.59;5106193;28;20443;-82
2022/08/18 00:26:40;;;;;;;61.10;49.93;;;;;;;20.83;86.73;99942.06;5104389;28;20479;-81
2022/08/18 00:29:07;;;;;;;64.33;52.47;;;;;;;20.87;86.84;99940.59;5087317;28;20440;-81
2022/08/18 00:31:34;;;;;;;68.57;53.80;;;;;;;20.66;87.21;99942.56;5085946;28;20467;-82
2022/08/18 00:34:02;;;;;;;63.93;52.60;;;;;;;20.69;87.82;99931.25;5105572;28;20855;-81
2022/08/18 00:36:30;;;;;;;68.03;54.60;;;;;;;20.66;87.32;99930.88;5093652;28;20472;-81
2022/08/18 00:38:57;;;;;;;68.30;54.00;;;;;;;20.50;88.10;99938.41;5085982;28;20476;-81
2022/08/18 00:41:25;;;;;;;72.67;55.80;;;;;;;20.50;88.70;99946.53;5102653;28;20504;-81
2022/08/18 00:43:55;;;;;;;75.07;56.70;;;;;;;20.58;88.30;99944.63;5075806;28;20448;-80
2022/08/18 00:46:25;;;;;;;71.67;57.20;;;;;;;20.50;88.40;99934.81;5064337;28;21071;-80
2022/08/18 00:48:52;;;;;;;79.23;58.07;;;;;;;20.50;88.67;99938.41;5074808;28;20443;-81
2022/08/18 00:51:22;;;;;;;75.60;58.10;;;;;;;20.57;88.51;99941.09;5090397;28;20486;-81
2022/08/18 00:53:51;;;;;;;71.90;56.70;;;;;;;20.55;88.19;99939.63;5094974;28;20500;-81
2022/08/18 00:56:21;;;;;;;77.73;59.03;;;;;;;20.51;88.31;99936.50;5097413;28;21026;-81
2022/08/18 00:58:52;;;;;;;77.53;58.20;;;;;;;20.45;88.44;99932.78;5086539;28;20466;-81
2022/08/18 01:01:23;;;;;;;79.60;60.93;;;;;;;20.42;88.41;99938.63;5091244;28;20482;-82
2022/08/18 01:03:52;;;;;;;79.00;60.67;;;;;;;20.44;88.19;99938.41;5086055;28;20465;-81
2022/08/18 01:06:26;;;;;;;84.17;60.27;;;;;;;20.43;88.27;99943.00;5076185;28;20476;-81
2022/08/18 01:08:53;;;;;;;75.80;57.60;;;;;;;20.34;88.51;99935.31;5086029;28;20436;-81
2022/08/18 01:11:20;;;;;;;85.67;60.57;;;;;;;20.34;88.71;99943.44;5085002;28;20532;-81
2022/08/18 01:13:46;;;;;;;79.37;59.37;;;;;;;20.30;88.84;99937.59;5084575;28;20424;-81
2022/08/18 01:21:52;;;;;;;88.30;62.00;;;;;;;20.22;89.41;99935.94;5083690;28;20479;-81
2022/08/18 01:25:58;;;;;;;79.50;59.50;;;;;;;20.20;89.34;99929.88;5068400;28;20440;-82
2022/08/18 01:27:09;;;;;;;83.23;62.20;;;;;;;20.13;89.49;99927.19;5078717;28;20488;-81
2022/08/18 01:29:36;;;;;;;82.03;60.63;;;;;;;20.10;89.45;99932.19;5087110;28;20463;-81
2022/08/18 01:32:03;;;;;;;75.60;57.17;;;;;;;20.11;89.68;99937.41;5095350;28;20480;-81
2022/08/18 01:34:30;;;;;;;82.07;59.00;;;;;;;20.00;90.33;99937.22;5095782;28;20444;-80
2022/08/18 01:36:57;;;;;;;76.23;57.50;;;;;;;20.04;90.19;99936.59;5076034;28;20513;-80
2022/08/18 01:39:25;;;;;;;79.10;58.93;;;;;;;20.06;89.84;99947.25;5081638;28;20472;-80
2022/08/18 01:41:52;;;;;;;75.73;56.90;;;;;;;19.98;89.86;99934.75;5083519;28;20472;-79
2022/08/18 01:44:19;;;;;;;82.53;58.90;;;;;;;19.87;90.80;99938.91;5084176;28;20498;-80
2022/08/18 01:46:45;;;;;;;85.70;61.30;;;;;;;19.83;91.12;99936.84;5082353;28;20484;-80
2022/08/18 01:49:13;;;;;;;77.37;58.90;;;;;;;19.79;91.43;99943.69;5093630;28;20470;-80
2022/08/18 01:51:41;;;;;;;75.33;59.00;;;;;;;19.74;91.75;99936.22;5087447;28;20472;-80
2022/08/18 01:54:13;;;;;;;85.40;59.63;;;;;;;19.67;92.22;99935.31;5095481;28;20522;-81
2022/08/18 01:56:42;;;;;;;93.57;60.07;;;;;;;19.64;92.40;99930.31;5066710;28;20488;-81
2022/08/18 01:59:13;;;;;;;78.27;59.73;;;;;;;19.54;92.61;99926.13;5079622;28;20480;-81
2022/08/18 02:01:41;;;;;;;87.33;63.90;;;;;;;19.59;92.57;99930.13;5091535;28;20471;-81
2022/08/18 02:04:08;;;;;;;87.57;63.53;;;;;;;19.61;92.56;99930.75;5091416;28;20952;-80
2022/08/18 02:06:35;;;;;;;86.77;61.70;;;;;;;19.61;92.63;99934.28;5088781;28;20475;-81
2022/08/18 02:09:01;;;;;;;79.73;59.20;;;;;;;19.66;92.46;99939.91;5103231;28;20444;-81
2022/08/18 02:11:28;;;;;;;91.40;64.30;;;;;;;19.64;92.63;99946.59;5085581;28;20464;-80
2022/08/18 02:13:56;;;;;;;96.30;67.43;;;;;;;19.60;92.37;99932.63;5083235;28;20440;-80
2022/08/18 02:16:23;;;;;;;90.53;65.63;;;;;;;19.66;92.37;99933.66;5075013;28;20500;-80
2022/08/18 02:18:50;;;;;;;91.10;66.40;;;;;;;19.66;92.03;99939.09;5083185;28;20506;-79
2022/08/18 02:21:20;;;;;;;91.53;67.67;;;;;;;19.57;91.98;99939.28;5093201;28;20471;-79
2022/08/18 02:23:47;;;;;;;86.83;63.50;;;;;;;19.62;92.17;99940.56;5088955;28;20444;-79
2022/08/18 02:26:16;;;;;;;92.07;64.40;;;;;;;19.57;92.28;99952.00;5087976;28;20479;-80
2022/08/18 02:28:43;;;;;;;92.87;65.97;;;;;;;19.60;91.79;99953.47;5096570;28;20523;-79
2022/08/18 02:31:14;;;;;;;101.60;69.47;;;;;;;19.53;92.18;99945.34;5084261;28;20501;-79
2022/08/18 02:33:41;;;;;;;88.93;65.63;;;;;;;19.52;92.34;99946.38;5091614;28;20443;-80
2022/08/18 02:36:08;;;;;;;98.03;70.00;;;;;;;19.46;92.40;99942.63;5077597;28;20977;-81
2022/08/18 02:38:35;;;;;;;96.13;68.20;;;;;;;19.50;92.39;99945.75;5082712;28;20441;-81
2022/08/18 02:41:05;;;;;;;86.97;66.10;;;;;;;19.52;92.00;99943.66;5102169;28;20471;-80
2022/08/18 02:43:32;;;;;;;90.57;64.90;;;;;;;19.53;91.91;99940.75;5103182;28;20444;-80
2022/08/18 02:45:59;;;;;;;87.37;63.50;;;;;;;19.56;91.52;99934.06;5082812;28;20544;-80
2022/08/18 02:48:31;;;;;;;94.73;66.43;;;;;;;19.56;91.33;99943.06;5087321;28;20439;-81
2022/08/18 02:51:00;;;;;;;95.13;67.77;;;;;;;19.52;91.31;99936.34;5061755;28;20477;-80
2022/08/18 02:53:27;;;;;;;85.53;62.63;;;;;;;19.49;91.65;99934.03;5099289;28;20439;-80
2022/08/18 02:55:54;;;;;;;92.53;68.43;;;;;;;19.51;91.99;99921.16;5084302;28;20488;-80
2022/08/18 02:58:21;;;;;;;87.63;67.17;;;;;;;19.65;92.00;99930.13;5081197;28;20458;-80
2022/08/18 03:00:48;;;;;;;100.20;72.20;;;;;;;19.61;92.25;99926.13;5082321;28;20487;-80
2022/08/18 03:03:14;;;;;;;94.87;71.17;;;;;;;19.48;92.49;99923.44;5084069;28;20455;-80
2022/08/18 03:05:43;;;;;;;103.53;71.70;;;;;;;19.51;93.37;99931.13;5092118;28;20502;-80
2022/08/18 03:08:10;;;;;;;103.17;73.90;;;;;;;19.50;93.29;99935.72;5100324;28;20463;-79
2022/08/18 03:10:37;;;;;;;108.40;76.03;;;;;;;19.51;93.96;99928.41;5094969;28;20459;-80
2022/08/18 03:13:04;;;;;;;112.63;75.20;;;;;;;19.52;93.83;99941.78;5090036;28;20515;-80
2022/08/18 03:15:31;;;;;;;108.63;75.53;;;;;;;19.55;93.84;99926.97;5088323;28;20935;-80
2022/08/18 03:17:58;;;;;;;115.43;78.83;;;;;;;19.55;93.96;99930.53;5087984;28;20569;-80
2022/08/18 03:20:25;;;;;;;109.30;76.40;;;;;;;19.63;93.46;99939.50;5100493;28;20491;-81
2022/08/18 03:22:54;;;;;;;108.13;73.07;;;;;;;19.62;93.54;99952.22;5096824;28;20447;-80
2022/08/18 03:25:20;;;;;;;113.07;74.87;;;;;;;19.55;94.00;99941.38;5089917;28;20443;-80
2022/08/18 03:27:47;;;;;;;122.33;79.83;;;;;;;19.61;94.07;99936.16;5097524;28;20549;-80
2022/08/18 03:30:13;;;;;;;118.30;75.80;;;;;;;19.64;93.62;99938.47;5098751;28;20455;-79
2022/08/18 03:32:40;;;;;;;108.80;76.23;;;;;;;19.68;93.19;99931.56;5093964;28;20482;-80
2022/08/18 03:35:08;;;;;;;114.17;79.20;;;;;;;19.62;93.35;99925.09;5080894;28;20440;-80
2022/08/18 03:37:35;;;;;;;109.10;75.07;;;;;;;19.72;93.27;99933.66;5088280;28;20448;-80
2022/08/18 03:40:04;;;;;;;114.03;76.00;;;;;;;19.70;93.06;99924.06;5089025;28;20479;-81
2022/08/18 03:42:30;;;;;;;106.83;75.87;;;;;;;19.68;92.99;99920.72;5080290;28;21007;-80
2022/08/18 03:44:57;;;;;;;103.67;75.53;;;;;;;19.57;93.09;99920.28;5072625;28;20445;-81
2022/08/18 03:47:24;;;;;;;115.90;77.40;;;;;;;19.53;93.29;99921.75;5080166;28;20503;-80
2022/08/18 03:49:50;;;;;;;123.23;80.10;;;;;;;19.44;93.72;99930.28;5097119;28;21163;-81
2022/08/18 03:52:17;;;;;;;110.23;73.80;;;;;;;19.47;93.72;99933.44;5086517;28;20545;-81
2022/08/18 03:54:44;;;;;;;109.27;75.40;;;;;;;19.49;94.17;99930.50;5079627;28;20487;-81
2022/08/18 03:57:13;;;;;;;114.73;80.87;;;;;;;19.50;94.47;99934.91;5086453;28;20505;-81
2022/08/18 03:59:42;;;;;;;128.80;80.80;;;;;;;19.49;94.24;99936.75;5089557;28;20476;-81
2022/08/18 04:02:10;;;;;;;106.97;70.67;;;;;;;19.65;93.88;99942.81;5080479;28;20502;-81
2022/08/18 04:04:37;;;;;;;120.50;82.00;;;;;;;19.64;93.40;99936.56;5094103;28;20498;-82
2022/08/18 04:07:08;;;;;;;123.77;80.47;;;;;;;19.65;93.21;99948.25;5084921;28;20480;-82
2022/08/18 04:09:35;;;;;;;121.50;83.27;;;;;;;19.62;93.53;99954.94;5081867;28;20428;-82
2022/08/18 04:12:10;;;;;;;123.80;82.87;;;;;;;19.44;94.84;99950.09;5082472;28;20482;-83
2022/08/18 04:14:39;;;;;;;138.80;84.83;;;;;;;19.53;95.06;99956.19;5082078;28;20465;-82
2022/08/18 04:17:06;;;;;;;125.10;83.57;;;;;;;19.67;94.27;99951.59;5091986;28;20486;-81
2022/08/18 04:19:33;;;;;;;134.27;85.10;;;;;;;19.57;94.39;99949.28;5091062;28;20452;-81
2022/08/18 04:22:01;;;;;;;129.93;78.43;;;;;;;19.40;95.00;99953.44;5063006;28;20897;-82
2022/08/18 04:24:30;;;;;;;136.60;81.67;;;;;;;19.36;94.74;99944.88;5081427;28;20467;-83
2022/08/18 04:26:58;;;;;;;125.87;80.70;;;;;;;19.37;95.05;99960.09;5074330;28;20476;-82
2022/08/18 04:29:25;;;;;;;136.50;86.70;;;;;;;19.53;94.48;99964.31;5080591;28;20444;-81
2022/08/18 04:31:53;;;;;;;131.53;83.37;;;;;;;19.52;94.31;99966.19;5078036;28;20523;-75
2022/08/18 04:34:21;;;;;;;130.50;85.63;;;;;;;19.63;93.53;99962.00;5077288;28;20624;-74
2022/08/18 04:36:50;;;;;;;116.20;78.50;;;;;;;19.65;92.54;99964.53;5079808;28;20555;-75
2022/08/18 04:39:17;;;;;;;120.83;77.10;;;;;;;19.55;91.87;99970.38;5076663;28;20500;-73
2022/08/18 04:41:44;;;;;;;111.90;70.33;;;;;;;19.50;91.77;99973.69;5070153;28;20533;-73
2022/08/18 04:44:12;;;;;;;106.13;68.93;;;;;;;19.49;91.38;99973.88;5099842;28;20440;-72
2022/08/18 04:46:41;;;;;;;111.97;71.57;;;;;;;19.64;90.89;99974.53;5084528;28;20508;-73
2022/08/18 04:49:10;;;;;;;103.40;70.77;;;;;;;19.62;90.68;99968.50;5097562;28;20454;-72
2022/08/18 04:51:41;;;;;;;110.37;69.93;;;;;;;19.72;89.67;99976.22;5095701;28;20486;-73
2022/08/18 04:54:07;;;;;;;94.60;65.63;;;;;;;19.81;89.23;99972.31;5104726;28;20494;-72
2022/08/18 04:56:36;;;;;;;101.33;69.17;;;;;;;19.64;88.50;99979.97;5102025;28;20479;-72
2022/08/18 04:59:06;;;;;;;102.17;68.00;;;;;;;19.61;89.22;99977.66;5084613;28;20599;-72
2022/08/18 05:01:35;;;;;;;101.50;68.00;;;;;;;19.60;88.69;99986.84;5087178;28;20978;-72
2022/08/18 05:04:02;;;;;;;97.30;65.60;;;;;;;19.61;88.42;99971.41;5105213;28;20431;-72
2022/08/18 05:06:31;;;;;;;98.60;66.40;;;;;;;19.60;88.03;99967.00;5102045;28;20471;-71
2022/08/18 05:09:01;;;;;;;91.13;64.53;;;;;;;19.74;87.36;99971.47;5098289;28;20449;-72
2022/08/18 05:11:32;;;;;;;96.40;65.10;;;;;;;19.78;86.61;99967.28;5093639;28;20953;-73
2022/08/18 05:13:59;;;;;;;95.73;63.00;;;;;;;19.80;86.53;99980.66;5104975;28;20859;-74
2022/08/18 05:16:27;;;;;;;85.43;58.87;;;;;;;19.71;86.44;99980.81;5091072;28;20512;-74
2022/08/18 05:18:54;;;;;;;88.20;59.43;;;;;;;19.65;86.65;99988.94;5073812;28;20470;-73
2022/08/18 05:21:21;;;;;;;82.23;57.37;;;;;;;19.82;86.09;99989.41;5096375;28;20510;-73
2022/08/18 05:23:50;;;;;;;91.10;60.80;;;;;;;19.73;86.05;99994.16;5087747;28;20443;-73
2022/08/18 05:26:18;;;;;;;83.97;55.93;;;;;;;19.89;85.60;99982.97;5094494;28;20484;-72
2022/08/18 05:28:46;;;;;;;79.70;57.60;;;;;;;19.93;85.00;99983.38;5068606;28;20937;-74
2022/08/18 05:31:14;;;;;;;82.30;58.50;;;;;;;19.86;84.71;99979.78;5103728;28;20478;-72
2022/08/18 05:33:41;;;;;;;82.23;58.43;;;;;;;19.92;84.72;99977.09;5104420;28;20439;-73
2022/08/18 05:36:28;;;;;;;78.40;55.33;;;;;;;20.02;84.09;99982.13;5097277;28;20480;-73
2022/08/18 05:39:03;;;;;;;75.10;52.13;;;;;;;20.06;83.88;99993.38;5061239;28;20488;-71
2022/08/18 05:41:33;;;;;;;73.70;54.43;;;;;;;20.04;83.76;99998.19;5060835;28;21149;-71
2022/08/18 05:44:00;;;;;;;74.70;54.30;;;;;;;20.05;83.54;99991.69;5061969;28;20441;-73
2022/08/18 05:46:34;;;;;;;71.30;51.97;;;;;;;20.28;81.86;99988.56;5061202;28;20519;-73
2022/08/18 05:49:01;;;;;;;72.33;51.70;;;;;;;20.04;82.43;99990.03;5061755;28;20440;-72
2022/08/18 05:51:32;;;;;;;65.93;50.27;;;;;;;20.23;81.77;99993.78;5060809;28;20473;-73
2022/08/18 05:56:47;;;;;;;68.70;48.03;;;;;;;20.21;81.53;99994.00;5068129;28;20475;-73
2022/08/18 05:59:18;;;;;;;58.47;46.13;;;;;;;20.59;80.02;99992.47;5081547;28;20435;-73
2022/08/18 06:01:50;;;;;;;61.20;45.10;;;;;;;21.14;76.43;99992.94;5080847;28;20475;-73
2022/08/18 06:04:24;;;;;;;49.83;40.10;;;;;;;22.66;71.27;99983.03;5081724;28;20428;-73
2022/08/18 06:06:51;;;;;;;46.30;39.17;;;;;;;23.00;66.81;99986.19;5073241;28;20488;-72
2022/08/18 06:09:22;;;;;;;45.03;39.13;;;;;;;24.44;62.11;99990.72;5062046;28;20441;-73
2022/08/18 06:11:49;;;;;;;38.27;34.13;;;;;;;24.69;61.01;99990.50;5075040;28;20481;-73
2022/08/18 06:14:16;;;;;;;39.23;35.00;;;;;;;24.03;62.53;99979.69;5083336;28;20437;-73
2022/08/18 06:16:53;;;;;;;36.03;32.23;;;;;;;24.00;63.45;99987.53;5076217;28;20485;-72
2022/08/18 06:19:32;;;;;;;35.60;31.90;;;;;;;24.51;61.69;99986.00;5063183;28;20968;-73
2022/08/18 06:22:05;;;;;;;38.23;34.07;;;;;;;25.07;59.92;99988.25;5078003;28;20483;-73
2022/08/18 06:24:46;;;;;;;40.30;33.20;;;;;;;25.59;57.90;99996.44;5080541;28;20784;-73
2022/08/18 06:27:18;;;;;;;34.50;31.10;;;;;;;26.44;54.65;99991.81;5071518;28;20883;-70
2022/08/18 06:29:53;;;;;;;33.50;30.07;;;;;;;25.58;56.86;99999.41;5081960;28;20443;-70
2022/08/18 06:32:28;;;;;;;32.47;29.27;;;;;;;25.99;55.09;100000.13;5082315;28;20497;-70
2022/08/18 06:35:03;;;;;;;34.30;30.87;;;;;;;26.70;54.14;99996.84;5082657;28;20444;-73
2022/08/18 06:38:37;;;;;;;34.13;30.50;;;;;;;26.09;54.83;100003.03;5082766;28;20553;-73
2022/08/18 06:40:22;;;;;;;34.27;29.37;;;;;;;25.70;55.71;100006.47;5081879;28;20550;-71
2022/08/18 06:42:49;;;;;;;33.17;29.90;;;;;;;25.66;56.20;100010.78;5083493;28;20439;-71
2022/08/18 06:45:17;;;;;;;35.20;31.70;;;;;;;25.22;57.06;100005.00;5064502;28;20448;-71
2022/08/18 06:47:51;;;;;;;31.50;28.33;;;;;;;26.78;53.40;100010.13;5063574;28;20486;-72
2022/08/18 06:50:24;;;;;;;32.53;29.40;;;;;;;26.90;52.82;100013.56;5062380;28;20450;-71
2022/08/18 06:52:53;;;;;;;32.37;29.17;;;;;;;27.71;50.27;100021.09;5063533;28;20525;-71
2022/08/18 06:55:34;;;;;;;34.37;30.57;;;;;;;26.36;53.86;100016.06;5061105;28;20512;-71
2022/08/18 06:58:03;;;;;;;35.17;31.03;;;;;;;25.63;55.68;100024.97;5063177;28;20428;-71
2022/08/18 07:00:33;;;;;;;36.57;32.73;;;;;;;25.83;55.79;100034.63;5062307;28;20469;-71
2022/08/18 07:03:01;;;;;;;33.97;30.47;;;;;;;26.91;53.23;100033.59;5074964;28;20436;-71
2022/08/18 07:05:29;;;;;;;32.80;29.37;;;;;;;28.09;50.09;100034.91;5081936;28;20478;-72
2022/08/18 07:08:10;;;;;;;37.17;33.27;;;;;;;27.50;50.66;100033.78;5083109;28;20425;-71
2022/08/18 07:10:43;;;;;;;33.17;29.67;;;;;;;28.57;48.59;100043.28;5081713;28;20553;-71
2022/08/18 07:13:24;;;;;;;37.17;33.37;;;;;;;28.41;48.53;100034.88;5082108;28;20444;-72
2022/08/18 07:15:51;;;;;;;36.03;32.50;;;;;;;28.75;48.15;100031.84;5081899;28;20494;-72
2022/08/18 07:18:24;;;;;;;38.27;34.27;;;;;;;28.31;48.59;100040.31;5082886;28;20980;-72
2022/08/18 07:20:53;;;;;;;38.10;34.30;;;;;;;26.69;52.46;100028.91;5086616;28;20470;-71
2022/08/18 07:23:27;;;;;;;43.97;39.47;;;;;;;26.21;54.18;100039.41;5079309;28;20908;-71
2022/08/18 07:26:02;;;;;;;41.33;36.83;;;;;;;26.81;52.77;100037.03;5081300;28;20475;-71
2022/08/18 07:28:30;;;;;;;41.07;36.70;;;;;;;26.95;52.58;100037.50;5082504;28;20462;-71
2022/08/18 07:31:13;;;;;;;42.27;37.67;;;;;;;27.59;50.12;100042.41;5080707;28;20503;-74
2022/08/18 07:33:40;;;;;;;40.33;35.93;;;;;;;28.21;49.00;100040.22;5064425;28;20445;-74
2022/08/18 07:36:08;;;;;;;42.90;37.83;;;;;;;27.93;49.15;100037.56;5061274;28;20472;-73
2022/08/18 07:38:40;;;;;;;40.20;35.97;;;;;;;29.69;45.44;100037.44;5061713;28;20437;-73
2022/08/18 07:41:13;;;;;;;39.93;35.67;;;;;;;29.78;44.95;100040.50;5060388;28;20553;-73
2022/08/18 07:43:45;;;;;;;37.00;33.00;;;;;;;30.28;42.92;100036.09;5079212;28;20458;-73
2022/08/18 07:46:17;;;;;;;39.57;35.57;;;;;;;29.60;43.94;100039.91;5080731;28;20477;-73
2022/08/18 07:48:45;;;;;;;37.53;33.53;;;;;;;30.48;42.08;100042.72;5081519;28;20926;-73
2022/08/18 07:51:22;;;;;;;37.53;33.70;;;;;;;29.23;45.06;100048.31;5080755;28;20472;-73
2022/08/18 07:53:56;;;;;;;35.87;32.17;;;;;;;29.48;45.16;100053.09;5081462;28;20825;-73
2022/08/18 07:56:32;;;;;;;35.20;31.70;;;;;;;29.51;45.92;100058.03;5080908;28;20483;-73
2022/08/18 07:59:03;;;;;;;35.70;32.07;;;;;;;30.25;42.60;100055.13;5080736;28;20491;-73
2022/08/18 08:01:35;;;;;;;37.90;34.00;;;;;;;27.03;50.17;100045.28;5080973;28;20480;-73
2022/08/18 08:04:08;;;;;;;37.40;33.40;;;;;;;25.97;53.96;100052.44;5082063;28;20425;-73
2022/08/18 08:06:39;;;;;;;37.30;33.37;;;;;;;26.00;55.14;100056.59;5080722;28;20897;-73
2022/08/18 08:09:12;;;;;;;39.07;34.77;;;;;;;25.92;55.20;100044.94;5078515;28;20441;-74
2022/08/18 08:11:48;;;;;;;40.17;35.83;;;;;;;24.91;57.88;100061.81;5062973;28;20484;-73
2022/08/18 08:14:35;;;;;;;38.00;33.90;;;;;;;24.75;58.55;100049.69;5080090;28;20439;-73
2022/08/18 08:17:08;;;;;;;38.50;34.30;;;;;;;24.79;59.26;100056.34;5085158;28;20498;-72
2022/08/18 08:19:57;;;;;;;41.53;33.80;;;;;;;24.82;59.73;100049.56;5084374;28;20440;-73
2022/08/18 08:22:29;;;;;;;38.57;33.17;;;;;;;26.55;53.87;100044.03;5083378;28;20508;-73
2022/08/18 08:25:04;;;;;;;39.53;34.50;;;;;;;26.18;54.26;100042.66;5085130;28;20447;-73
2022/08/18 08:27:43;;;;;;;39.23;33.43;;;;;;;25.93;55.06;100053.97;5085015;28;20863;-73
2022/08/18 08:30:13;;;;;;;38.00;33.57;;;;;;;26.83;53.69;100043.91;5083801;28;20448;-73
2022/08/18 08:32:49;;;;;;;38.20;32.37;;;;;;;27.11;52.28;100042.09;5085276;28;20513;-73
2022/08/18 08:35:19;;;;;;;39.77;35.37;;;;;;;26.21;54.09;100047.63;5084500;28;20435;-73
2022/08/18 08:37:49;;;;;;;39.23;34.40;;;;;;;27.88;49.64;100044.88;5084101;28;20460;-73
2022/08/18 08:40:18;;;;;;;35.80;32.13;;;;;;;29.32;46.86;100043.13;5082607;28;20451;-73
2022/08/18 08:42:51;;;;;;;35.67;31.60;;;;;;;30.77;42.54;100042.94;5085021;28;20563;-73
2022/08/18 08:45:21;;;;;;;35.90;31.87;;;;;;;30.76;41.80;100046.78;5083795;28;20454;-73
2022/08/18 08:47:54;;;;;;;36.87;33.00;;;;;;;29.82;43.69;100045.19;5071807;28;20445;-73
2022/08/18 08:50:23;;;;;;;37.43;33.57;;;;;;;28.34;48.62;100043.34;5064122;28;20461;-73
2022/08/18 08:52:52;;;;;;;34.03;30.37;;;;;;;31.06;42.39;100037.63;5064297;28;20484;-74
2022/08/18 08:55:24;;;;;;;33.87;30.50;;;;;;;31.35;40.95;100050.75;5063135;28;20554;-74
2022/08/18 08:57:56;;;;;;;32.57;29.30;;;;;;;31.14;41.49;100061.91;5077260;28;20442;-73
2022/08/18 09:00:23;;;;;;;34.77;31.27;;;;;;;29.76;44.01;100060.06;5083852;28;20439;-73
2022/08/18 09:02:59;;;;;;;35.17;31.60;;;;;;;28.61;47.45;100052.66;5084746;28;20540;-73
2022/08/18 09:05:28;;;;;;;35.60;31.90;;;;;;;28.24;49.25;100051.53;5083431;28;21005;-73
2022/08/18 09:08:22;;;;;;;35.10;31.60;;;;;;;27.09;51.10;100060.72;5071954;28;20457;-73
2022/08/18 09:11:09;;;;;;;36.90;33.10;;;;;;;26.21;53.03;100066.78;5060805;28;20515;-73
2022/08/18 09:13:59;;;;;;;35.70;31.90;;;;;;;26.73;52.88;100054.75;5063741;28;20459;-73
2022/08/18 09:16:38;;;;;;;39.10;33.30;;;;;;;26.05;54.88;100056.69;5033799;28;20487;-73
2022/08/18 09:19:36;;;;;;;38.73;32.43;;;;;;;26.24;53.53;100060.00;5081464;28;20451;-73
2022/08/18 09:22:10;;;;;;;35.50;30.60;;;;;;;25.80;55.19;100062.50;5082398;28;20514;-73
2022/08/18 09:24:41;;;;;;;35.93;32.20;;;;;;;25.47;56.15;100066.81;5084382;28;20424;-73
2022/08/18 09:27:17;;;;;;;37.03;32.30;;;;;;;24.95;57.69;100059.44;5080294;28;20502;-73
2022/08/18 09:29:51;;;;;;;37.20;33.17;;;;;;;24.63;59.33;100065.25;5083477;28;20499;-73
2022/08/18 09:32:53;;;;;;;38.70;33.33;;;;;;;24.93;58.53;100065.13;5083390;28;20504;-73
2022/08/18 09:35:35;;;;;;;40.07;33.07;;;;;;;24.91;58.77;100067.28;5000605;28;20462;-73
2022/08/18 09:44:09;;;;;;;43.13;33.90;;;;;;;24.85;59.16;100072.88;5082842;28;20465;-73
2022/08/18 09:46:59;;;;;;;43.20;37.43;;;;;;;24.68;60.26;100076.31;5063961;28;20532;-73
2022/08/18 09:49:45;;;;;;;43.10;34.37;;;;;;;25.42;57.88;100083.97;5064115;28;20440;-73
2022/08/18 09:52:52;;;;;;;40.83;34.33;;;;;;;24.83;59.09;100078.56;5060237;28;20444;-74
2022/08/18 09:55:43;;;;;;;41.60;35.63;;;;;;;25.80;56.96;100077.03;5042608;28;20486;-72
2022/08/18 09:58:15;;;;;;;41.93;34.47;;;;;;;26.40;54.03;100074.78;5043041;28;20449;-73
2022/08/18 10:00:42;;;;;;;48.30;35.40;;;;;;;27.27;52.56;100077.97;5042612;28;20474;-74
2022/08/18 10:03:28;;;;;;;36.40;30.93;;;;;;;27.35;52.60;100070.13;5043575;28;20512;-74
2022/08/18 10:06:05;;;;;;;38.57;34.43;;;;;;;28.04;49.81;100073.38;5061102;28;20476;-74
2022/08/18 10:08:54;;;;;;;36.97;32.90;;;;;;;27.20;51.43;100078.16;5063798;28;20447;-74
2022/08/18 10:11:35;;;;;;;39.20;33.13;;;;;;;25.97;55.00;100096.28;5062336;28;20495;-73
2022/08/18 10:14:44;;;;;;;36.27;32.47;;;;;;;26.18;55.98;100096.59;5059469;28;20441;-73
2022/08/18 10:17:18;;;;;;;38.30;33.20;;;;;;;25.47;56.43;100088.72;5029318;28;20482;-73
2022/08/18 10:19:53;;;;;;;37.67;32.80;;;;;;;25.64;57.08;100092.34;5049770;28;20467;-73
2022/08/18 10:22:40;;;;;;;38.27;31.40;;;;;;;25.17;57.61;100095.16;5062018;28;20487;-74
2022/08/18 10:25:10;;;;;;;37.53;31.17;;;;;;;25.67;55.62;100091.00;5050367;28;20450;-75
2022/08/18 10:27:49;;;;;;;35.57;31.47;;;;;;;25.62;56.94;100096.38;5042592;28;20966;-77
2022/08/18 10:30:48;;;;;;;35.80;29.40;;;;;;;26.04;56.31;100093.34;5042829;28;20999;-77
2022/08/18 10:33:53;;;;;;;36.23;31.10;;;;;;;26.38;54.65;100085.16;5043088;28;20430;-77
2022/08/18 10:36:53;;;;;;;34.03;30.33;;;;;;;25.76;56.74;100092.28;5055809;28;20476;-77
2022/08/18 10:39:22;;;;;;;37.07;28.73;;;;;;;25.47;56.80;100085.97;5062712;28;20433;-77
2022/08/18 10:42:02;;;;;;;33.10;28.53;;;;;;;25.67;56.01;100088.28;5060924;28;20488;-77
2022/08/18 10:44:32;;;;;;;37.73;31.23;;;;;;;25.75;55.71;100088.72;5062060;28;20451;-77
2022/08/18 10:47:01;;;;;;;32.10;28.67;;;;;;;25.59;57.10;100088.66;5062476;28;21000;-76
2022/08/18 10:49:30;;;;;;;31.73;28.30;;;;;;;25.97;56.47;100089.94;5062410;28;20453;-76
2022/08/18 10:52:26;;;;;;;36.90;31.03;;;;;;;25.54;58.01;100092.16;5061894;28;20503;-77
2022/08/18 10:55:19;;;;;;;32.87;29.30;;;;;;;25.56;56.87;100093.53;5052045;28;20528;-78
2022/08/18 10:57:59;;;;;;;33.20;29.63;;;;;;;25.46;57.26;100090.59;5062092;28;20471;-78
2022/08/18 11:00:39;;;;;;;31.87;28.00;;;;;;;25.74;55.67;100108.97;5059303;28;20453;-77
2022/08/18 11:03:13;;;;;;;29.63;26.40;;;;;;;25.99;53.24;100091.38;5042232;28;20493;-77
2022/08/18 11:05:40;;;;;;;26.30;23.40;;;;;;;26.34;52.87;100081.28;5057034;28;20551;-77
2022/08/18 11:08:16;;;;;;;26.10;23.40;;;;;;;25.74;52.48;100087.06;5062791;28;20443;-77
2022/08/18 11:10:47;;;;;;;30.80;27.60;;;;;;;25.94;53.97;100088.53;5060923;28;20542;-77
2022/08/18 11:13:20;;;;;;;30.60;27.30;;;;;;;26.09;54.71;100087.97;5061624;28;20445;-77
2022/08/18 11:15:56;;;;;;;29.20;26.00;;;;;;;26.29;53.19;100084.75;5045172;28;20910;-78
2022/08/18 11:18:31;;;;;;;28.57;25.47;;;;;;;26.04;54.52;100087.88;5062324;28;20443;-77
2022/08/18 11:21:22;;;;;;;29.60;26.33;;;;;;;26.22;54.57;100081.34;5060066;28;20472;-77
2022/08/18 11:24:11;;;;;;;27.80;24.80;;;;;;;26.15;55.64;100087.00;5061812;28;20437;-78
2022/08/18 11:26:40;;;;;;;31.23;27.83;;;;;;;25.78;56.05;100089.28;5060816;28;20503;-77
2022/08/18 11:29:22;;;;;;;31.80;28.40;;;;;;;25.61;55.92;100097.47;5051386;28;20438;-78
2022/08/18 11:31:49;;;;;;;33.63;28.57;;;;;;;25.24;56.77;100081.34;5041492;28;20535;-77
2022/08/18 11:34:19;;;;;;;30.67;27.57;;;;;;;25.41;56.49;100087.75;5045100;28;20445;-77
2022/08/18 11:36:58;;;;;;;30.50;26.80;;;;;;;25.61;56.53;100084.63;5061406;28;20542;-76
2022/08/18 11:39:26;;;;;;;28.90;25.80;;;;;;;25.66;56.12;100084.72;5062009;28;20429;-77
2022/08/18 11:41:52;;;;;;;28.83;25.37;;;;;;;25.45;56.48;100078.00;5062242;28;20516;-77
2022/08/18 11:44:23;;;;;;;31.37;27.47;;;;;;;24.88;57.86;100072.41;5061937;28;20445;-76
2022/08/18 11:46:54;;;;;;;30.97;27.53;;;;;;;24.88;58.62;100070.50;5059737;28;21273;-77
2022/08/18 11:49:28;;;;;;;30.30;27.10;;;;;;;25.44;57.43;100073.59;5060598;28;20450;-76